createdAt,value
2019-04-30T00:00:09.756Z,11.90
2019-04-30T00:02:56.333Z,12.83
2019-04-30T00:05:26.597Z,15.23
2019-04-30T00:07:58.498Z,13.03
2019-04-30T00:10:36.038Z,10.80
2019-04-30T00:13:01.538Z,12.33
2019-04-30T00:15:32.162Z,13.13
2019-04-30T00:18:02.646Z,13.77
2019-04-30T00:20:37.155Z,13.17
2019-04-30T00:23:05.653Z,12.47
2019-04-30T00:25:36.219Z,13.88
2019-04-30T00:28:08.746Z,13.70
2019-04-30T00:30:39.387Z,11.00
2019-04-30T00:33:15.187Z,10.63
2019-04-30T00:35:42.846Z,13.30
2019-04-30T00:38:15.137Z,8.93
2019-04-30T00:40:45.533Z,10.40
2019-04-30T00:43:15.788Z,11.17
2019-04-30T00:45:47.556Z,11.63
2019-04-30T00:48:26.922Z,9.53
2019-04-30T00:50:50.459Z,12.47
2019-04-30T00:53:20.685Z,13.27
2019-04-30T00:55:51.371Z,10.77
2019-04-30T00:58:28.527Z,10.50
2019-04-30T01:01:25.325Z,10.37
2019-04-30T01:04:01.883Z,10.33
2019-04-30T01:06:32.583Z,11.73
2019-04-30T01:09:05.415Z,12.83
2019-04-30T01:11:39.790Z,14.17
2019-04-30T01:14:09.822Z,10.00
2019-04-30T01:16:40.363Z,12.73
2019-04-30T01:19:21.289Z,13.43
2019-04-30T01:21:47.144Z,11.57
2019-04-30T01:24:15.824Z,13.07
2019-04-30T01:26:46.299Z,12.70
2019-04-30T01:29:19.107Z,11.63
2019-04-30T01:31:49.553Z,11.97
2019-04-30T01:34:19.836Z,10.47
2019-04-30T01:36:52.238Z,9.90
2019-04-30T01:39:23.798Z,7.70
2019-04-30T01:41:54.503Z,8.97
2019-04-30T01:44:25.121Z,7.73
2019-04-30T01:46:55.661Z,7.37
2019-04-30T01:49:27.213Z,7.50
2019-04-30T01:52:00.896Z,7.80
2019-04-30T01:54:31.108Z,7.20
2019-04-30T01:57:30.219Z,7.27
2019-04-30T02:00:19.613Z,7.83
2019-04-30T02:02:50.321Z,6.77
2019-04-30T02:05:20.622Z,8.57
2019-04-30T02:07:50.839Z,7.77
2019-04-30T02:10:21.223Z,9.20
2019-04-30T02:12:51.388Z,7.83
2019-04-30T02:15:21.929Z,8.57
2019-04-30T02:17:52.608Z,8.50
2019-04-30T02:20:22.961Z,9.00
2019-04-30T02:22:53.254Z,9.30
2019-04-30T02:25:23.518Z,8.97
2019-04-30T02:27:53.810Z,8.53
2019-04-30T02:30:24.911Z,10.27
2019-04-30T02:32:55.681Z,9.10
2019-04-30T02:35:50.138Z,8.10
2019-04-30T02:38:23.908Z,9.30
2019-04-30T02:40:55.062Z,7.90
2019-04-30T02:43:25.915Z,9.60
2019-04-30T02:45:59.882Z,9.57
2019-04-30T02:48:32.517Z,7.30
2019-04-30T02:51:06.532Z,9.27
2019-04-30T02:54:19.641Z,9.20
2019-04-30T02:56:53.481Z,7.73
2019-04-30T02:59:23.810Z,9.67
2019-04-30T03:01:54.065Z,8.93
2019-04-30T03:04:24.394Z,7.93
2019-04-30T03:06:54.735Z,8.53
2019-04-30T03:09:25.001Z,6.77
2019-04-30T03:11:55.217Z,7.00
2019-04-30T03:14:25.515Z,8.37
2019-04-30T03:17:12.882Z,6.70
2019-04-30T03:19:51.399Z,6.83
2019-04-30T03:22:24.616Z,6.80
2019-04-30T03:24:54.958Z,6.13
2019-04-30T03:27:25.685Z,6.10
2019-04-30T03:29:56.380Z,7.27
2019-04-30T03:32:31.695Z,7.67
2019-04-30T03:35:03.059Z,7.33
2019-04-30T03:37:30.526Z,6.67
2019-04-30T03:40:00.902Z,7.60
2019-04-30T03:42:31.175Z,6.90
2019-04-30T03:45:01.423Z,8.43
2019-04-30T03:47:31.726Z,7.23
2019-04-30T03:50:02.142Z,5.97
2019-04-30T03:52:32.442Z,7.57
2019-04-30T03:55:03.221Z,7.73
2019-04-30T03:57:34.508Z,6.93
2019-04-30T04:00:05.404Z,7.43
2019-04-30T04:02:41.988Z,7.60
2019-04-30T04:05:34.094Z,6.33
2019-04-30T04:08:20.332Z,6.80
2019-04-30T04:10:54.540Z,7.17
2019-04-30T04:13:25.303Z,7.70
2019-04-30T04:15:55.665Z,6.97
2019-04-30T04:18:26.279Z,8.07
2019-04-30T04:21:08.750Z,7.93
2019-04-30T04:23:32.743Z,6.83
2019-04-30T04:26:02.292Z,7.50
2019-04-30T04:28:32.601Z,6.87
2019-04-30T04:31:03.226Z,8.07
2019-04-30T04:33:34.014Z,8.37
2019-04-30T04:36:04.395Z,7.37
2019-04-30T04:38:34.702Z,8.40
2019-04-30T04:41:05.177Z,6.67
2019-04-30T04:43:36.574Z,7.90
2019-04-30T04:46:09.256Z,8.60
2019-04-30T04:48:39.664Z,6.80
2019-04-30T04:51:27.185Z,6.33
2019-04-30T04:53:43.002Z,7.03
2019-04-30T04:56:13.831Z,7.43
2019-04-30T04:58:44.259Z,7.27
2019-04-30T05:01:15.035Z,7.73
2019-04-30T05:03:45.555Z,6.23
2019-04-30T05:06:15.923Z,7.67
2019-04-30T05:08:46.302Z,6.10
2019-04-30T05:11:16.999Z,6.47
2019-04-30T05:13:49.028Z,7.73
2019-04-30T05:16:19.590Z,7.70
2019-04-30T05:18:49.925Z,6.50
2019-04-30T05:21:20.221Z,5.90
2019-04-30T05:23:50.888Z,6.20
2019-04-30T05:26:22.884Z,6.73
2019-04-30T05:28:53.605Z,5.30
2019-04-30T05:31:24.031Z,7.30
2019-04-30T05:33:54.431Z,8.23
2019-04-30T05:36:25.093Z,8.03
2019-04-30T05:38:58.746Z,6.77
2019-04-30T05:41:29.927Z,7.63
2019-04-30T05:44:00.287Z,6.90
2019-04-30T05:46:31.008Z,7.77
2019-04-30T05:49:01.681Z,7.57
2019-04-30T05:51:32.186Z,8.10
2019-04-30T05:54:02.901Z,7.40
2019-04-30T05:56:33.674Z,7.50
2019-04-30T05:59:04.155Z,6.97
2019-04-30T06:01:34.825Z,7.60
2019-04-30T06:04:05.174Z,8.60
2019-04-30T06:06:36.012Z,6.30
2019-04-30T06:09:30.440Z,6.80
2019-04-30T06:12:05.935Z,6.53
2019-04-30T06:14:48.883Z,6.20
2019-04-30T06:17:16.948Z,7.20
2019-04-30T06:19:48.804Z,7.03
2019-04-30T06:22:19.899Z,6.07
2019-04-30T06:24:50.255Z,5.70
2019-04-30T06:27:21.254Z,6.00
2019-04-30T06:29:51.792Z,6.23
2019-04-30T06:32:22.096Z,6.60
2019-04-30T06:34:52.694Z,6.17
2019-04-30T06:37:23.080Z,6.03
2019-04-30T06:39:53.506Z,6.77
2019-04-30T06:42:23.876Z,6.50
2019-04-30T06:44:54.352Z,6.17
2019-04-30T06:47:32.922Z,6.07
2019-04-30T06:49:58.750Z,6.23
2019-04-30T06:52:29.447Z,5.60
2019-04-30T06:54:59.752Z,5.93
2019-04-30T06:57:30.753Z,7.10
2019-04-30T07:00:01.553Z,7.13
2019-04-30T07:02:32.197Z,7.33
2019-04-30T07:05:02.786Z,8.37
2019-04-30T07:07:38.740Z,6.37
2019-04-30T07:10:21.609Z,6.70
2019-04-30T07:13:22.785Z,6.77
2019-04-30T07:15:53.180Z,7.23
2019-04-30T07:18:23.663Z,6.03
2019-04-30T07:20:54.012Z,6.67
2019-04-30T07:23:24.313Z,6.17
2019-04-30T07:25:54.675Z,6.50
2019-04-30T07:28:41.250Z,8.50
2019-04-30T07:31:10.709Z,6.43
2019-04-30T07:33:29.636Z,6.53
2019-04-30T07:36:01.746Z,5.00
2019-04-30T07:38:35.650Z,6.10
2019-04-30T07:41:04.364Z,5.87
2019-04-30T07:43:34.704Z,6.00
2019-04-30T07:46:05.359Z,5.67
2019-04-30T07:48:36.160Z,6.87
2019-04-30T07:51:09.741Z,7.67
2019-04-30T07:53:40.410Z,7.77
2019-04-30T07:56:24.362Z,7.67
2019-04-30T07:58:43.506Z,13.23
2019-04-30T08:01:13.964Z,7.33
2019-04-30T08:04:05.911Z,6.30
2019-04-30T08:06:36.262Z,6.70
2019-04-30T08:09:10.328Z,7.27
2019-04-30T08:11:43.502Z,6.97
2019-04-30T08:14:12.789Z,6.10
2019-04-30T08:16:43.445Z,6.10
2019-04-30T08:19:14.139Z,5.97
2019-04-30T08:21:44.470Z,5.50
2019-04-30T08:24:15.213Z,5.70
2019-04-30T08:26:46.350Z,4.97
2019-04-30T08:29:19.402Z,5.20
2019-04-30T08:31:49.762Z,5.20
2019-04-30T08:34:20.252Z,6.10
2019-04-30T08:36:51.486Z,6.43
2019-04-30T08:39:22.352Z,7.60
2019-04-30T08:41:52.793Z,8.30
2019-04-30T08:44:23.474Z,9.53
2019-04-30T08:46:53.744Z,8.80
2019-04-30T08:49:24.307Z,10.67
2019-04-30T08:51:55.486Z,10.57
2019-04-30T08:54:26.142Z,16.23
2019-04-30T08:56:56.858Z,13.47
2019-04-30T08:59:29.470Z,12.57
2019-04-30T09:02:12.902Z,11.30
2019-04-30T09:04:32.868Z,11.70
2019-04-30T09:07:03.424Z,10.83
2019-04-30T09:09:33.835Z,10.80
2019-04-30T09:12:04.498Z,11.43
2019-04-30T09:14:34.807Z,11.13
2019-04-30T09:17:05.458Z,10.90
2019-04-30T09:19:36.093Z,10.50
2019-04-30T09:22:14.457Z,8.67
2019-04-30T09:24:39.241Z,8.87
2019-04-30T09:27:10.774Z,8.50
2019-04-30T09:29:41.211Z,7.70
2019-04-30T09:32:11.616Z,8.40
2019-04-30T09:34:41.964Z,7.60
2019-04-30T09:37:12.231Z,8.17
2019-04-30T09:39:42.583Z,7.80
2019-04-30T09:42:13.405Z,8.00
2019-04-30T09:44:43.686Z,8.60
2019-04-30T09:47:14.005Z,8.67
2019-04-30T09:49:44.275Z,8.23
2019-04-30T09:52:14.570Z,8.97
2019-04-30T09:54:44.892Z,9.30
2019-04-30T09:57:15.149Z,9.17
2019-04-30T09:59:45.445Z,8.67
2019-04-30T10:02:15.857Z,7.43
2019-04-30T10:04:46.656Z,8.67
2019-04-30T10:07:19.338Z,9.67
2019-04-30T10:09:50.979Z,8.80
2019-04-30T10:12:21.387Z,8.23
2019-04-30T10:14:52.335Z,8.63
2019-04-30T10:17:40.205Z,8.57
2019-04-30T10:20:13.344Z,9.10
2019-04-30T10:22:43.687Z,8.80
2019-04-30T10:25:14.621Z,9.87
2019-04-30T10:27:45.181Z,8.73
2019-04-30T10:30:19.181Z,9.43
2019-04-30T10:32:50.051Z,9.37
2019-04-30T10:35:20.613Z,9.27
2019-04-30T10:37:51.286Z,9.80
2019-04-30T10:40:21.745Z,10.17
2019-04-30T10:42:51.997Z,10.30
2019-04-30T10:45:23.021Z,10.37
2019-04-30T10:47:53.573Z,11.30
2019-04-30T10:50:24.948Z,10.93
2019-04-30T10:52:55.339Z,9.80
2019-04-30T10:55:26.376Z,9.23
2019-04-30T10:57:56.672Z,9.77
2019-04-30T11:00:39.350Z,9.50
2019-04-30T11:03:19.294Z,10.73
2019-04-30T11:05:45.412Z,9.93
2019-04-30T11:08:15.791Z,9.63
2019-04-30T11:10:46.766Z,9.80
2019-04-30T11:13:17.788Z,9.00
2019-04-30T11:15:49.200Z,8.43
2019-04-30T11:18:19.762Z,8.20
2019-04-30T11:20:50.414Z,8.27
2019-04-30T11:23:21.378Z,8.90
2019-04-30T11:25:52.540Z,8.43
2019-04-30T11:28:23.802Z,9.43
2019-04-30T11:31:04.666Z,9.93
2019-04-30T11:33:36.039Z,10.87
2019-04-30T11:36:06.612Z,9.67
2019-04-30T11:38:38.810Z,9.80
2019-04-30T11:41:09.150Z,9.43
2019-04-30T11:43:39.514Z,9.90
2019-04-30T11:47:09.553Z,9.53
2019-04-30T11:49:39.954Z,10.37
2019-04-30T11:52:10.706Z,11.23
2019-04-30T11:54:49.184Z,14.37
2019-04-30T11:57:13.814Z,11.87
2019-04-30T11:59:44.113Z,11.83
2019-04-30T12:02:21.307Z,14.23
2019-04-30T12:04:51.866Z,11.47
2019-04-30T12:07:50.730Z,12.93
2019-04-30T12:10:40.072Z,12.37
2019-04-30T12:13:29.591Z,15.67
2019-04-30T12:15:59.998Z,13.50
2019-04-30T12:18:31.005Z,14.10
2019-04-30T12:21:01.733Z,13.63
2019-04-30T12:23:32.108Z,13.00
2019-04-30T12:26:03.005Z,13.80
2019-04-30T12:28:33.624Z,12.77
2019-04-30T12:31:05.890Z,12.83
2019-04-30T12:33:36.349Z,11.97
2019-04-30T12:36:08.896Z,13.53
2019-04-30T12:38:39.258Z,11.70
2019-04-30T12:41:09.962Z,11.33
2019-04-30T12:43:40.356Z,11.63
2019-04-30T12:46:10.669Z,11.23
2019-04-30T12:48:52.800Z,13.20
2019-04-30T12:51:30.967Z,11.87
2019-04-30T12:54:09.330Z,12.47
2019-04-30T12:56:58.536Z,12.20
2019-04-30T12:59:29.289Z,13.90
2019-04-30T13:01:59.983Z,13.67
2019-04-30T13:04:32.404Z,12.27
2019-04-30T13:07:03.341Z,13.53
2019-04-30T13:09:38.919Z,11.27
2019-04-30T13:12:10.263Z,14.13
2019-04-30T13:14:52.339Z,13.53
2019-04-30T13:17:18.829Z,10.60
2019-04-30T13:19:52.198Z,10.73
2019-04-30T13:22:28.884Z,12.77
2019-04-30T13:25:00.285Z,10.23
2019-04-30T13:27:33.551Z,10.87
2019-04-30T13:30:13.980Z,10.73
2019-04-30T13:32:55.670Z,10.47
2019-04-30T13:35:26.073Z,13.77
2019-04-30T13:38:01.193Z,13.13
2019-04-30T13:40:39.047Z,10.30
2019-04-30T13:43:09.997Z,10.57
2019-04-30T13:45:40.316Z,12.03
2019-04-30T13:48:10.617Z,10.93
2019-04-30T13:50:41.679Z,12.23
2019-04-30T13:53:12.344Z,13.83
2019-04-30T13:55:45.794Z,11.17
2019-04-30T13:58:14.717Z,11.10
2019-04-30T14:00:45.133Z,14.87
2019-04-30T14:03:29.168Z,11.43
2019-04-30T14:05:59.829Z,13.63
2019-04-30T14:08:35.190Z,13.13
2019-04-30T14:11:05.542Z,12.10
2019-04-30T14:13:37.123Z,11.13
2019-04-30T14:16:09.580Z,11.57
2019-04-30T14:18:40.360Z,12.20
2019-04-30T14:21:11.061Z,9.03
2019-04-30T14:23:41.390Z,10.20
2019-04-30T14:26:12.234Z,9.43
2019-04-30T14:28:42.507Z,9.63
2019-04-30T14:31:12.765Z,8.73
2019-04-30T14:33:43.344Z,10.57
2019-04-30T14:36:13.644Z,10.60
2019-04-30T14:38:44.468Z,10.30
2019-04-30T14:41:15.522Z,9.37
2019-04-30T14:43:51.535Z,10.50
2019-04-30T14:46:41.341Z,10.10
2019-04-30T14:49:32.177Z,9.23
2019-04-30T14:52:03.558Z,9.57
2019-04-30T14:54:58.967Z,10.77
2019-04-30T14:57:46.757Z,9.10
2019-04-30T15:00:32.021Z,11.07
2019-04-30T15:03:09.339Z,9.50
2019-04-30T15:05:46.945Z,8.40
2019-04-30T15:08:11.422Z,8.37
2019-04-30T15:10:42.050Z,9.10
2019-04-30T15:13:12.316Z,9.03
2019-04-30T15:15:43.013Z,8.67
2019-04-30T15:18:13.854Z,9.37
2019-04-30T15:20:44.292Z,8.03
2019-04-30T15:23:32.066Z,8.50
2019-04-30T15:26:02.414Z,10.40
2019-04-30T15:28:32.783Z,8.97
2019-04-30T15:31:03.181Z,10.00
2019-04-30T15:33:44.209Z,8.60
2019-04-30T15:36:14.577Z,9.20
2019-04-30T15:39:19.942Z,9.23
2019-04-30T15:41:50.636Z,12.37
2019-04-30T15:44:21.079Z,8.50
2019-04-30T15:46:51.407Z,9.17
2019-04-30T15:49:21.720Z,9.13
2019-04-30T15:51:52.410Z,9.57
2019-04-30T15:54:23.122Z,8.53
2019-04-30T15:56:53.424Z,8.37
2019-04-30T15:59:42.883Z,8.37
2019-04-30T16:02:21.831Z,9.10
2019-04-30T16:05:09.837Z,12.47
2019-04-30T16:07:49.227Z,9.47
2019-04-30T16:10:50.563Z,10.17
2019-04-30T16:13:22.786Z,9.00
2019-04-30T16:15:53.464Z,9.40
2019-04-30T16:18:25.815Z,10.33
2019-04-30T16:20:56.335Z,10.00
2019-04-30T16:23:26.950Z,10.33
2019-04-30T16:25:57.175Z,9.20
2019-04-30T16:28:29.550Z,10.53
2019-04-30T16:31:00.348Z,10.47
2019-04-30T16:33:31.003Z,8.63
2019-04-30T16:36:01.636Z,10.00
2019-04-30T16:38:31.909Z,10.83
2019-04-30T16:41:02.328Z,9.73
2019-04-30T16:43:33.344Z,11.23
2019-04-30T16:46:04.285Z,9.30
2019-04-30T16:48:34.628Z,11.20
2019-04-30T16:51:06.199Z,9.13
2019-04-30T16:53:38.367Z,10.63
2019-04-30T16:56:09.180Z,11.57
2019-04-30T16:58:57.104Z,10.30
2019-04-30T17:01:28.100Z,11.33
2019-04-30T17:04:04.801Z,11.60
2019-04-30T17:06:38.367Z,11.20
2019-04-30T17:09:18.662Z,22.70
2019-04-30T17:12:03.855Z,10.10
2019-04-30T17:14:35.002Z,9.70
2019-04-30T17:17:06.200Z,9.43
2019-04-30T17:19:39.230Z,8.33
2019-04-30T17:22:09.300Z,9.17
2019-04-30T17:24:39.648Z,11.30
2019-04-30T17:27:18.733Z,9.83
2019-04-30T17:29:43.012Z,9.87
2019-04-30T17:32:13.965Z,10.70
2019-04-30T17:34:44.358Z,11.37
2019-04-30T17:37:14.672Z,10.67
2019-04-30T17:39:44.958Z,10.37
2019-04-30T17:42:15.953Z,8.37
2019-04-30T17:44:56.438Z,9.20
2019-04-30T17:47:19.226Z,12.10
2019-04-30T17:49:50.910Z,11.17
2019-04-30T17:52:23.412Z,11.83
2019-04-30T17:54:53.735Z,10.07
2019-04-30T17:57:32.207Z,11.43
2019-04-30T17:59:56.734Z,12.20
2019-04-30T18:02:29.351Z,11.53
2019-04-30T18:04:59.811Z,12.03
2019-04-30T18:07:30.238Z,10.90
2019-04-30T18:10:00.855Z,12.27
2019-04-30T18:12:31.836Z,11.30
2019-04-30T18:15:02.847Z,12.13
2019-04-30T18:17:33.826Z,11.63
2019-04-30T18:20:23.050Z,11.37
2019-04-30T18:23:06.166Z,10.30
2019-04-30T18:25:46.607Z,10.83
2019-04-30T18:28:18.983Z,11.77
2019-04-30T18:30:49.195Z,11.57
2019-04-30T18:33:19.595Z,10.30
2019-04-30T18:35:50.043Z,10.47
2019-04-30T18:38:20.977Z,10.77
2019-04-30T18:40:51.599Z,11.00
2019-04-30T18:43:21.962Z,12.43
2019-04-30T18:45:52.354Z,11.13
2019-04-30T18:48:22.623Z,12.47
2019-04-30T18:50:52.958Z,11.30
2019-04-30T18:53:26.282Z,10.47
2019-04-30T18:55:59.204Z,12.03
2019-04-30T18:58:39.304Z,11.17
2019-04-30T19:01:02.317Z,11.00
2019-04-30T19:03:32.642Z,10.53
2019-04-30T19:06:22.298Z,13.43
2019-04-30T19:08:50.983Z,12.63
2019-04-30T19:11:28.975Z,11.50
2019-04-30T19:14:39.420Z,11.20
2019-04-30T19:17:34.036Z,12.03
2019-04-30T19:20:35.636Z,10.10
2019-04-30T19:23:09.935Z,11.20
2019-04-30T19:25:38.864Z,11.70
2019-04-30T19:28:14.148Z,10.60
2019-04-30T19:30:54.752Z,12.43
2019-04-30T19:33:14.423Z,13.33
2019-04-30T19:35:45.499Z,12.20
2019-04-30T19:38:16.086Z,12.87
2019-04-30T19:40:46.840Z,13.63
2019-04-30T19:43:17.519Z,13.20
2019-04-30T19:45:49.033Z,11.17
2019-04-30T19:48:20.809Z,15.43
2019-04-30T19:50:51.152Z,12.73
2019-04-30T19:53:22.232Z,14.10
2019-04-30T19:55:52.665Z,13.30
2019-04-30T19:58:29.484Z,12.33
2019-04-30T20:00:55.456Z,13.30
2019-04-30T20:03:25.772Z,13.47
2019-04-30T20:05:56.069Z,12.43
2019-04-30T20:08:26.421Z,14.67
2019-04-30T20:10:59.299Z,14.23
2019-04-30T20:13:36.651Z,13.07
2019-04-30T20:16:02.607Z,14.97
2019-04-30T20:18:32.905Z,15.07
2019-04-30T20:21:05.863Z,15.83
2019-04-30T20:23:36.603Z,16.77
2019-04-30T20:26:07.318Z,14.37
2019-04-30T20:28:41.432Z,14.80
2019-04-30T20:31:11.529Z,16.87
2019-04-30T20:33:41.766Z,15.70
2019-04-30T20:36:12.099Z,18.27
2019-04-30T20:39:01.307Z,15.77
2019-04-30T20:41:33.123Z,17.93
2019-04-30T20:44:03.515Z,18.27
2019-04-30T20:46:35.275Z,15.83
2019-04-30T20:49:06.022Z,18.23
2019-04-30T20:51:36.376Z,18.10
2019-04-30T20:54:09.054Z,15.83
2019-04-30T20:56:39.083Z,16.67
2019-04-30T20:59:10.806Z,20.07
2019-04-30T21:01:41.237Z,14.63
2019-04-30T21:04:11.982Z,18.17
2019-04-30T21:06:42.255Z,18.77
2019-04-30T21:09:12.496Z,18.30
2019-04-30T21:11:45.135Z,16.47
2019-04-30T21:14:14.823Z,16.17
2019-04-30T21:16:45.625Z,16.93
2019-04-30T21:19:15.890Z,16.50
2019-04-30T21:21:46.183Z,15.83
2019-04-30T21:24:16.508Z,18.70
2019-04-30T21:26:46.871Z,16.43
2019-04-30T21:29:18.756Z,18.53
2019-04-30T21:32:10.920Z,18.13
2019-04-30T21:34:57.256Z,17.00
2019-04-30T21:37:27.924Z,19.80
2019-04-30T21:39:58.568Z,17.70
2019-04-30T21:42:28.976Z,17.00
2019-04-30T21:44:59.301Z,18.73
2019-04-30T21:47:29.566Z,22.10
2019-04-30T21:49:59.899Z,17.53
2019-04-30T21:52:30.484Z,18.30
2019-04-30T21:55:01.530Z,17.67
2019-04-30T21:57:32.274Z,16.60
2019-04-30T22:00:02.927Z,17.40
2019-04-30T22:02:33.287Z,17.67
2019-04-30T22:05:04.279Z,18.43
2019-04-30T22:07:34.575Z,16.80
2019-04-30T22:10:06.021Z,16.97
2019-04-30T22:12:36.314Z,16.30
2019-04-30T22:15:06.783Z,18.33
2019-04-30T22:17:39.109Z,14.70
2019-04-30T22:20:09.623Z,16.13
2019-04-30T22:22:39.994Z,16.60
2019-04-30T22:25:10.648Z,14.27
2019-04-30T22:27:41.098Z,16.87
2019-04-30T22:30:11.783Z,17.60
2019-04-30T22:32:42.561Z,15.07
2019-04-30T22:35:30.884Z,15.13
2019-04-30T22:38:03.002Z,17.23
2019-04-30T22:40:33.594Z,16.67
2019-04-30T22:43:03.896Z,17.77
2019-04-30T22:45:42.324Z,17.33
2019-04-30T22:48:12.934Z,18.17
2019-04-30T22:50:43.300Z,19.70
2019-04-30T22:53:13.556Z,19.70
2019-04-30T22:55:43.828Z,19.00
2019-04-30T22:58:14.434Z,17.50
2019-04-30T23:00:45.848Z,18.00
2019-04-30T23:03:21.294Z,19.33
2019-04-30T23:05:51.526Z,18.83
2019-04-30T23:08:21.750Z,17.67
2019-04-30T23:10:52.454Z,17.17
2019-04-30T23:13:22.855Z,17.37
2019-04-30T23:15:55.723Z,18.30
2019-04-30T23:18:27.023Z,18.33
2019-04-30T23:20:57.331Z,17.30
2019-04-30T23:23:27.658Z,21.83
2019-04-30T23:25:58.498Z,17.87
2019-04-30T23:28:29.078Z,18.37
2019-04-30T23:30:59.326Z,18.30
2019-04-30T23:33:30.479Z,21.33
2019-04-30T23:36:01.180Z,20.40
2019-04-30T23:38:31.447Z,17.27
2019-04-30T23:41:01.723Z,17.40
2019-04-30T23:43:32.110Z,18.70
2019-04-30T23:46:02.481Z,18.50
2019-04-30T23:48:32.748Z,18.83
2019-04-30T23:51:03.230Z,18.53
2019-04-30T23:53:33.958Z,17.73
2019-04-30T23:56:04.828Z,18.83
2019-04-30T23:58:35.197Z,17.13
